Terminal Aerodrome Forecast
Issued by NWS Austin/San Antonio, TX

Current Version | Previous Version | Text Only | Print | Product List | Glossary Off
Versions: 1 2 3 4 5 6 7 8 9 10 11 12 13 14 15 16 17 18 19 20 21 22 23 24 25 26 27 28 29 30 31 32 33

758
FTUS44 KEWX 172020 AAB
TAFSAT
TAF AMD
KSAT 172020Z 1720/1824 03013KT P6SM VCSH OVC010
     FM172200 03012KT 5SM -RA BR OVC009
     FM180400 01006KT 3SM RA BR OVC005=

USA.gov is the U.S. government's official web portal to all federal, state and local government web resources and services.